sensor_id;sensor_type;location;lat;lon;timestamp;temperature;humidity
61207;DHT22;47070;49.212;8.084;2022-12-07T00:00:38;7.00;99.90
61207;DHT22;47070;49.212;8.084;2022-12-07T00:04:38;6.60;99.90
61207;DHT22;47070;49.212;8.084;2022-12-07T00:08:39;6.40;99.90
61207;DHT22;47070;49.212;8.084;2022-12-07T00:12:40;6.30;99.90
61207;DHT22;47070;49.212;8.084;2022-12-07T00:16:41;6.50;99.90
61207;DHT22;47070;49.212;8.084;2022-12-07T00:20:42;6.70;99.90
61207;DHT22;47070;49.212;8.084;2022-12-07T00:24:42;6.70;99.90
61207;DHT22;47070;49.212;8.084;2022-12-07T00:28:46;6.70;99.90
61207;DHT22;47070;49.212;8.084;2022-12-07T00:32:47;6.90;99.90
61207;DHT22;47070;49.212;8.084;2022-12-07T00:36:47;6.70;99.90
61207;DHT22;47070;49.212;8.084;2022-12-07T00:40:58;6.80;99.90
61207;DHT22;47070;49.212;8.084;2022-12-07T00:44:58;7.10;99.90
61207;DHT22;47070;49.212;8.084;2022-12-07T00:48:59;7.30;99.90
61207;DHT22;47070;49.212;8.084;2022-12-07T00:52:59;7.10;99.90
61207;DHT22;47070;49.212;8.084;2022-12-07T00:57:00;7.10;99.90
61207;DHT22;47070;49.212;8.084;2022-12-07T01:01:01;7.30;99.90
61207;DHT22;47070;49.212;8.084;2022-12-07T01:05:02;7.30;99.90
61207;DHT22;47070;49.212;8.084;2022-12-07T01:09:03;7.30;99.90
61207;DHT22;47070;49.212;8.084;2022-12-07T01:13:04;7.50;99.90
61207;DHT22;47070;49.212;8.084;2022-12-07T01:17:04;7.40;99.90
61207;DHT22;47070;49.212;8.084;2022-12-07T01:21:14;7.50;99.90
61207;DHT22;47070;49.212;8.084;2022-12-07T01:25:15;7.30;99.90
61207;DHT22;47070;49.212;8.084;2022-12-07T01:29:15;7.20;99.90
61207;DHT22;47070;49.212;8.084;2022-12-07T01:33:15;7.10;99.90
61207;DHT22;47070;49.212;8.084;2022-12-07T01:37:16;7.50;99.90
61207;DHT22;47070;49.212;8.084;2022-12-07T01:41:16;7.60;99.90
61207;DHT22;47070;49.212;8.084;2022-12-07T01:49:28;7.50;99.90
61207;DHT22;47070;49.212;8.084;2022-12-07T01:53:30;7.30;99.90
61207;DHT22;47070;49.212;8.084;2022-12-07T01:57:32;7.10;99.90
61207;DHT22;47070;49.212;8.084;2022-12-07T02:01:33;7.00;99.90
61207;DHT22;47070;49.212;8.084;2022-12-07T02:05:34;7.00;99.90
61207;DHT22;47070;49.212;8.084;2022-12-07T02:09:35;7.00;99.90
61207;DHT22;47070;49.212;8.084;2022-12-07T02:13:36;7.00;99.90
61207;DHT22;47070;49.212;8.084;2022-12-07T02:30:02;7.10;99.90
61207;DHT22;47070;49.212;8.084;2022-12-07T02:38:37;7.20;99.90
61207;DHT22;47070;49.212;8.084;2022-12-07T02:42:41;7.30;99.90
61207;DHT22;47070;49.212;8.084;2022-12-07T02:46:44;7.60;99.90
61207;DHT22;47070;49.212;8.084;2022-12-07T02:50:48;8.60;99.90
61207;DHT22;47070;49.212;8.084;2022-12-07T02:54:49;8.50;99.90
61207;DHT22;47070;49.212;8.084;2022-12-07T02:59:07;8.60;99.90
61207;DHT22;47070;49.212;8.084;2022-12-07T03:03:12;8.00;99.90
61207;DHT22;47070;49.212;8.084;2022-12-07T03:07:32;7.70;99.90
61207;DHT22;47070;49.212;8.084;2022-12-07T03:11:42;7.40;99.90
61207;DHT22;47070;49.212;8.084;2022-12-07T03:20:04;8.00;99.90
61207;DHT22;47070;49.212;8.084;2022-12-07T03:24:14;8.00;99.90
61207;DHT22;47070;49.212;8.084;2022-12-07T03:28:16;8.20;99.90
61207;DHT22;47070;49.212;8.084;2022-12-07T03:32:31;8.00;99.90
61207;DHT22;47070;49.212;8.084;2022-12-07T03:37:35;8.10;99.90
61207;DHT22;47070;49.212;8.084;2022-12-07T03:41:07;7.80;99.90
61207;DHT22;47070;49.212;8.084;2022-12-07T03:45:09;8.40;99.90
61207;DHT22;47070;49.212;8.084;2022-12-07T03:49:18;8.30;99.90
61207;DHT22;47070;49.212;8.084;2022-12-07T03:53:22;8.10;99.90
61207;DHT22;47070;49.212;8.084;2022-12-07T03:57:25;9.00;99.90
61207;DHT22;47070;49.212;8.084;2022-12-07T04:01:27;9.20;99.90
61207;DHT22;47070;49.212;8.084;2022-12-07T04:05:28;8.40;99.90
61207;DHT22;47070;49.212;8.084;2022-12-07T04:09:28;9.40;99.90
61207;DHT22;47070;49.212;8.084;2022-12-07T04:13:29;9.00;99.90
61207;DHT22;47070;49.212;8.084;2022-12-07T04:17:29;9.00;99.90
61207;DHT22;47070;49.212;8.084;2022-12-07T04:21:30;8.60;99.90
61207;DHT22;47070;49.212;8.084;2022-12-07T04:25:30;8.50;99.90
61207;DHT22;47070;49.212;8.084;2022-12-07T04:29:30;9.10;99.90
61207;DHT22;47070;49.212;8.084;2022-12-07T04:33:31;9.60;99.90
61207;DHT22;47070;49.212;8.084;2022-12-07T04:37:31;9.70;99.90
61207;DHT22;47070;49.212;8.084;2022-12-07T04:41:32;9.40;99.90
61207;DHT22;47070;49.212;8.084;2022-12-07T04:45:33;9.50;99.90
61207;DHT22;47070;49.212;8.084;2022-12-07T04:49:33;9.40;99.90
61207;DHT22;47070;49.212;8.084;2022-12-07T04:53:34;9.30;99.90
61207;DHT22;47070;49.212;8.084;2022-12-07T04:57:34;9.60;99.90
61207;DHT22;47070;49.212;8.084;2022-12-07T05:01:35;9.60;99.90
61207;DHT22;47070;49.212;8.084;2022-12-07T05:05:35;10.80;99.90
61207;DHT22;47070;49.212;8.084;2022-12-07T05:09:36;10.60;99.90
61207;DHT22;47070;49.212;8.084;2022-12-07T05:13:36;10.10;99.90
61207;DHT22;47070;49.212;8.084;2022-12-07T05:17:36;9.30;99.90
61207;DHT22;47070;49.212;8.084;2022-12-07T05:21:37;8.90;99.90
61207;DHT22;47070;49.212;8.084;2022-12-07T05:25:37;9.80;99.90
61207;DHT22;47070;49.212;8.084;2022-12-07T05:29:38;9.20;99.90
61207;DHT22;47070;49.212;8.084;2022-12-07T05:33:38;8.10;99.90
61207;DHT22;47070;49.212;8.084;2022-12-07T05:37:39;7.70;99.90
61207;DHT22;47070;49.212;8.084;2022-12-07T05:41:39;7.70;99.90
61207;DHT22;47070;49.212;8.084;2022-12-07T05:46:09;7.60;99.90
61207;DHT22;47070;49.212;8.084;2022-12-07T05:50:09;7.70;99.90
61207;DHT22;47070;49.212;8.084;2022-12-07T05:54:09;7.40;99.90
61207;DHT22;47070;49.212;8.084;2022-12-07T05:58:10;7.40;99.90
61207;DHT22;47070;49.212;8.084;2022-12-07T06:02:29;7.80;99.90
61207;DHT22;47070;49.212;8.084;2022-12-07T06:06:29;7.70;99.90
61207;DHT22;47070;49.212;8.084;2022-12-07T06:10:30;7.70;99.90
61207;DHT22;47070;49.212;8.084;2022-12-07T06:14:30;8.80;99.90
61207;DHT22;47070;49.212;8.084;2022-12-07T06:18:31;8.90;99.90
61207;DHT22;47070;49.212;8.084;2022-12-07T06:22:31;9.50;99.90
61207;DHT22;47070;49.212;8.084;2022-12-07T06:26:32;9.00;99.90
61207;DHT22;47070;49.212;8.084;2022-12-07T06:30:32;8.60;99.90
61207;DHT22;47070;49.212;8.084;2022-12-07T06:34:33;9.90;99.90
61207;DHT22;47070;49.212;8.084;2022-12-07T06:38:33;8.70;99.90
61207;DHT22;47070;49.212;8.084;2022-12-07T06:42:33;8.70;99.90
61207;DHT22;47070;49.212;8.084;2022-12-07T06:46:34;8.20;99.90
61207;DHT22;47070;49.212;8.084;2022-12-07T06:50:35;8.30;99.90
61207;DHT22;47070;49.212;8.084;2022-12-07T06:54:36;7.80;99.90
61207;DHT22;47070;49.212;8.084;2022-12-07T06:58:36;7.90;99.90
61207;DHT22;47070;49.212;8.084;2022-12-07T07:02:37;7.70;99.90
61207;DHT22;47070;49.212;8.084;2022-12-07T07:06:37;8.40;99.90
61207;DHT22;47070;49.212;8.084;2022-12-07T07:10:38;7.70;99.90
61207;DHT22;47070;49.212;8.084;2022-12-07T07:14:38;7.80;99.90
61207;DHT22;47070;49.212;8.084;2022-12-07T07:18:39;7.50;99.90
61207;DHT22;47070;49.212;8.084;2022-12-07T07:22:39;7.40;99.90
61207;DHT22;47070;49.212;8.084;2022-12-07T07:26:40;7.30;99.90
61207;DHT22;47070;49.212;8.084;2022-12-07T07:30:40;7.30;99.90
61207;DHT22;47070;49.212;8.084;2022-12-07T07:34:41;7.30;99.90
61207;DHT22;47070;49.212;8.084;2022-12-07T07:38:41;7.30;99.90
61207;DHT22;47070;49.212;8.084;2022-12-07T07:42:42;7.10;99.90
61207;DHT22;47070;49.212;8.084;2022-12-07T07:46:42;8.00;99.90
61207;DHT22;47070;49.212;8.084;2022-12-07T07:50:42;7.50;99.90
61207;DHT22;47070;49.212;8.084;2022-12-07T07:54:43;8.50;99.90
61207;DHT22;47070;49.212;8.084;2022-12-07T07:58:43;8.70;99.90
61207;DHT22;47070;49.212;8.084;2022-12-07T08:02:44;9.30;99.90
61207;DHT22;47070;49.212;8.084;2022-12-07T08:06:44;8.50;99.90
61207;DHT22;47070;49.212;8.084;2022-12-07T08:10:45;8.20;99.90
61207;DHT22;47070;49.212;8.084;2022-12-07T08:14:45;8.00;99.90
61207;DHT22;47070;49.212;8.084;2022-12-07T08:18:46;8.20;99.90
61207;DHT22;47070;49.212;8.084;2022-12-07T08:22:46;8.20;99.90
61207;DHT22;47070;49.212;8.084;2022-12-07T08:26:47;8.40;99.90
61207;DHT22;47070;49.212;8.084;2022-12-07T08:30:47;8.60;99.90
61207;DHT22;47070;49.212;8.084;2022-12-07T08:34:48;8.60;99.90
61207;DHT22;47070;49.212;8.084;2022-12-07T08:38:49;8.50;99.90
61207;DHT22;47070;49.212;8.084;2022-12-07T08:42:49;8.60;99.90
61207;DHT22;47070;49.212;8.084;2022-12-07T08:46:51;8.50;99.90
61207;DHT22;47070;49.212;8.084;2022-12-07T08:50:53;8.70;99.90
61207;DHT22;47070;49.212;8.084;2022-12-07T08:54:53;8.30;99.90
61207;DHT22;47070;49.212;8.084;2022-12-07T08:58:54;9.10;99.90
61207;DHT22;47070;49.212;8.084;2022-12-07T09:02:54;8.90;99.90
61207;DHT22;47070;49.212;8.084;2022-12-07T09:06:55;8.90;99.90
61207;DHT22;47070;49.212;8.084;2022-12-07T09:10:56;8.70;99.90
61207;DHT22;47070;49.212;8.084;2022-12-07T09:14:56;9.60;99.90
61207;DHT22;47070;49.212;8.084;2022-12-07T09:18:57;9.00;99.90
61207;DHT22;47070;49.212;8.084;2022-12-07T09:22:57;8.90;99.90
61207;DHT22;47070;49.212;8.084;2022-12-07T09:26:58;8.70;99.90
61207;DHT22;47070;49.212;8.084;2022-12-07T09:30:58;8.40;99.90
61207;DHT22;47070;49.212;8.084;2022-12-07T09:34:59;8.40;99.90
61207;DHT22;47070;49.212;8.084;2022-12-07T09:38:59;8.80;99.90
61207;DHT22;47070;49.212;8.084;2022-12-07T09:43:00;9.00;99.90
61207;DHT22;47070;49.212;8.084;2022-12-07T09:47:00;8.70;99.90
61207;DHT22;47070;49.212;8.084;2022-12-07T09:51:02;9.10;99.90
61207;DHT22;47070;49.212;8.084;2022-12-07T09:55:03;8.70;99.90
61207;DHT22;47070;49.212;8.084;2022-12-07T09:59:12;8.50;99.90
61207;DHT22;47070;49.212;8.084;2022-12-07T10:03:13;8.60;99.90
61207;DHT22;47070;49.212;8.084;2022-12-07T10:07:14;8.70;99.90
61207;DHT22;47070;49.212;8.084;2022-12-07T10:11:14;9.30;99.90
61207;DHT22;47070;49.212;8.084;2022-12-07T10:15:16;8.90;99.90
61207;DHT22;47070;49.212;8.084;2022-12-07T10:19:19;8.90;99.90
61207;DHT22;47070;49.212;8.084;2022-12-07T10:23:20;9.30;99.90
61207;DHT22;47070;49.212;8.084;2022-12-07T10:27:22;9.90;99.90
61207;DHT22;47070;49.212;8.084;2022-12-07T10:31:25;9.70;99.90
61207;DHT22;47070;49.212;8.084;2022-12-07T10:35:27;9.50;99.90
61207;DHT22;47070;49.212;8.084;2022-12-07T10:39:28;9.70;99.90
61207;DHT22;47070;49.212;8.084;2022-12-07T10:43:29;9.40;99.90
61207;DHT22;47070;49.212;8.084;2022-12-07T10:47:33;9.30;99.90
61207;DHT22;47070;49.212;8.084;2022-12-07T10:51:39;9.50;99.90
61207;DHT22;47070;49.212;8.084;2022-12-07T11:25:04;9.30;99.90
61207;DHT22;47070;49.212;8.084;2022-12-07T11:29:24;9.50;99.90
61207;DHT22;47070;49.212;8.084;2022-12-07T11:33:29;9.00;99.90
61207;DHT22;47070;49.212;8.084;2022-12-07T11:37:32;9.20;99.90
61207;DHT22;47070;49.212;8.084;2022-12-07T11:41:34;9.00;99.90
61207;DHT22;47070;49.212;8.084;2022-12-07T11:45:37;9.00;99.90
61207;DHT22;47070;49.212;8.084;2022-12-07T11:53:46;10.60;99.90
61207;DHT22;47070;49.212;8.084;2022-12-07T11:57:49;11.50;99.90
61207;DHT22;47070;49.212;8.084;2022-12-07T12:06:11;11.50;99.90
61207;DHT22;47070;49.212;8.084;2022-12-07T12:10:24;11.60;99.90
61207;DHT22;47070;49.212;8.084;2022-12-07T12:15:30;11.30;99.90
61207;DHT22;47070;49.212;8.084;2022-12-07T12:19:05;10.90;99.90
61207;DHT22;47070;49.212;8.084;2022-12-07T12:27:20;11.00;99.90
61207;DHT22;47070;49.212;8.084;2022-12-07T12:35:28;10.30;99.90
61207;DHT22;47070;49.212;8.084;2022-12-07T12:39:30;10.10;99.90
61207;DHT22;47070;49.212;8.084;2022-12-07T12:43:40;10.10;99.90
61207;DHT22;47070;49.212;8.084;2022-12-07T12:47:43;10.50;99.90
61207;DHT22;47070;49.212;8.084;2022-12-07T12:51:52;10.50;99.90
61207;DHT22;47070;49.212;8.084;2022-12-07T13:00:14;11.10;99.90
61207;DHT22;47070;49.212;8.084;2022-12-07T13:04:26;11.00;99.90
61207;DHT22;47070;49.212;8.084;2022-12-07T13:08:27;10.70;99.90
61207;DHT22;47070;49.212;8.084;2022-12-07T13:12:28;11.30;99.90
61207;DHT22;47070;49.212;8.084;2022-12-07T13:16:39;12.10;99.90
61207;DHT22;47070;49.212;8.084;2022-12-07T13:20:50;11.60;99.90
61207;DHT22;47070;49.212;8.084;2022-12-07T13:24:54;11.70;99.90
61207;DHT22;47070;49.212;8.084;2022-12-07T13:33:15;12.00;99.90
61207;DHT22;47070;49.212;8.084;2022-12-07T13:41:18;12.20;99.90
61207;DHT22;47070;49.212;8.084;2022-12-07T13:45:26;11.50;99.90
61207;DHT22;47070;49.212;8.084;2022-12-07T13:49:48;10.70;99.90
61207;DHT22;47070;49.212;8.084;2022-12-07T13:53:50;11.10;99.90
61207;DHT22;47070;49.212;8.084;2022-12-07T13:57:52;10.70;99.90
61207;DHT22;47070;49.212;8.084;2022-12-07T14:01:53;10.10;99.90
61207;DHT22;47070;49.212;8.084;2022-12-07T14:06:03;10.10;99.90
61207;DHT22;47070;49.212;8.084;2022-12-07T14:10:05;10.20;99.90
61207;DHT22;47070;49.212;8.084;2022-12-07T14:14:06;10.30;99.90
61207;DHT22;47070;49.212;8.084;2022-12-07T14:18:24;10.60;99.90
61207;DHT22;47070;49.212;8.084;2022-12-07T14:26:29;10.40;99.90
61207;DHT22;47070;49.212;8.084;2022-12-07T14:30:30;10.80;99.90
61207;DHT22;47070;49.212;8.084;2022-12-07T14:34:31;10.60;99.90
61207;DHT22;47070;49.212;8.084;2022-12-07T14:38:31;10.20;99.90
61207;DHT22;47070;49.212;8.084;2022-12-07T14:42:32;10.20;99.90
61207;DHT22;47070;49.212;8.084;2022-12-07T14:46:33;10.20;99.90
61207;DHT22;47070;49.212;8.084;2022-12-07T14:50:35;9.90;99.90
61207;DHT22;47070;49.212;8.084;2022-12-07T14:54:36;9.30;99.90
61207;DHT22;47070;49.212;8.084;2022-12-07T14:58:36;9.20;99.90
61207;DHT22;47070;49.212;8.084;2022-12-07T15:02:37;9.10;99.90
61207;DHT22;47070;49.212;8.084;2022-12-07T15:06:37;9.00;99.90
61207;DHT22;47070;49.212;8.084;2022-12-07T15:10:38;9.00;99.90
61207;DHT22;47070;49.212;8.084;2022-12-07T15:14:40;8.40;99.90
61207;DHT22;47070;49.212;8.084;2022-12-07T15:18:40;8.80;99.90
61207;DHT22;47070;49.212;8.084;2022-12-07T15:22:41;8.70;99.90
61207;DHT22;47070;49.212;8.084;2022-12-07T15:26:41;8.90;99.90
61207;DHT22;47070;49.212;8.084;2022-12-07T15:30:42;9.00;99.90
61207;DHT22;47070;49.212;8.084;2022-12-07T15:34:45;10.00;99.90
61207;DHT22;47070;49.212;8.084;2022-12-07T15:38:46;10.40;99.90
61207;DHT22;47070;49.212;8.084;2022-12-07T15:42:46;10.70;99.90
61207;DHT22;47070;49.212;8.084;2022-12-07T15:46:46;10.50;99.90
61207;DHT22;47070;49.212;8.084;2022-12-07T15:50:47;10.40;99.90
61207;DHT22;47070;49.212;8.084;2022-12-07T15:54:47;10.60;99.90
61207;DHT22;47070;49.212;8.084;2022-12-07T15:58:48;10.50;99.90
61207;DHT22;47070;49.212;8.084;2022-12-07T16:02:48;10.20;99.90
61207;DHT22;47070;49.212;8.084;2022-12-07T16:06:49;10.30;99.90
61207;DHT22;47070;49.212;8.084;2022-12-07T16:10:51;9.70;99.90
61207;DHT22;47070;49.212;8.084;2022-12-07T16:14:51;9.60;99.90
61207;DHT22;47070;49.212;8.084;2022-12-07T16:18:51;8.90;99.90
61207;DHT22;47070;49.212;8.084;2022-12-07T16:22:52;10.00;99.90
61207;DHT22;47070;49.212;8.084;2022-12-07T16:26:53;9.60;99.90
61207;DHT22;47070;49.212;8.084;2022-12-07T16:30:59;10.20;99.90
61207;DHT22;47070;49.212;8.084;2022-12-07T16:35:00;10.70;99.90
61207;DHT22;47070;49.212;8.084;2022-12-07T16:39:01;10.20;99.90
61207;DHT22;47070;49.212;8.084;2022-12-07T16:43:01;10.00;99.90
61207;DHT22;47070;49.212;8.084;2022-12-07T16:47:02;9.90;99.90
61207;DHT22;47070;49.212;8.084;2022-12-07T16:51:06;9.40;99.90
61207;DHT22;47070;49.212;8.084;2022-12-07T16:55:07;8.40;99.90
61207;DHT22;47070;49.212;8.084;2022-12-07T16:59:07;8.20;99.90
61207;DHT22;47070;49.212;8.084;2022-12-07T17:03:08;7.90;99.90
61207;DHT22;47070;49.212;8.084;2022-12-07T17:07:09;7.70;99.90
61207;DHT22;47070;49.212;8.084;2022-12-07T17:11:14;7.40;99.90
61207;DHT22;47070;49.212;8.084;2022-12-07T17:15:14;7.70;99.90
61207;DHT22;47070;49.212;8.084;2022-12-07T17:19:18;7.40;99.90
61207;DHT22;47070;49.212;8.084;2022-12-07T17:23:18;6.90;99.90
61207;DHT22;47070;49.212;8.084;2022-12-07T17:27:19;6.40;99.90
61207;DHT22;47070;49.212;8.084;2022-12-07T17:31:20;5.90;99.90
61207;DHT22;47070;49.212;8.084;2022-12-07T17:35:21;6.00;99.90
61207;DHT22;47070;49.212;8.084;2022-12-07T17:39:21;6.00;99.90
61207;DHT22;47070;49.212;8.084;2022-12-07T17:43:22;6.00;99.90
61207;DHT22;47070;49.212;8.084;2022-12-07T17:47:22;6.30;99.90
61207;DHT22;47070;49.212;8.084;2022-12-07T17:51:23;6.00;99.90
61207;DHT22;47070;49.212;8.084;2022-12-07T17:55:41;5.70;99.90
61207;DHT22;47070;49.212;8.084;2022-12-07T17:59:42;6.20;99.90
61207;DHT22;47070;49.212;8.084;2022-12-07T18:03:43;6.10;99.90
61207;DHT22;47070;49.212;8.084;2022-12-07T18:07:43;6.10;99.90
61207;DHT22;47070;49.212;8.084;2022-12-07T18:11:43;6.10;99.90
61207;DHT22;47070;49.212;8.084;2022-12-07T18:15:44;6.20;99.90
61207;DHT22;47070;49.212;8.084;2022-12-07T18:19:44;6.50;99.90
61207;DHT22;47070;49.212;8.084;2022-12-07T18:23:46;6.70;99.90
61207;DHT22;47070;49.212;8.084;2022-12-07T18:27:47;6.60;99.90
61207;DHT22;47070;49.212;8.084;2022-12-07T18:31:47;6.40;99.90
61207;DHT22;47070;49.212;8.084;2022-12-07T18:35:48;6.60;99.90
61207;DHT22;47070;49.212;8.084;2022-12-07T18:39:48;6.60;99.90
61207;DHT22;47070;49.212;8.084;2022-12-07T18:43:49;6.50;99.90
61207;DHT22;47070;49.212;8.084;2022-12-07T18:47:49;6.30;99.90
61207;DHT22;47070;49.212;8.084;2022-12-07T18:51:50;6.30;99.90
61207;DHT22;47070;49.212;8.084;2022-12-07T18:55:50;6.30;99.90
61207;DHT22;47070;49.212;8.084;2022-12-07T18:59:51;6.30;99.90
61207;DHT22;47070;49.212;8.084;2022-12-07T19:03:51;6.30;99.90
61207;DHT22;47070;49.212;8.084;2022-12-07T19:07:52;6.60;99.90
61207;DHT22;47070;49.212;8.084;2022-12-07T19:11:52;6.50;99.90
61207;DHT22;47070;49.212;8.084;2022-12-07T19:15:53;6.20;99.90
61207;DHT22;47070;49.212;8.084;2022-12-07T19:19:53;5.90;99.90
61207;DHT22;47070;49.212;8.084;2022-12-07T19:23:54;5.90;99.90
61207;DHT22;47070;49.212;8.084;2022-12-07T19:27:54;6.00;99.90
61207;DHT22;47070;49.212;8.084;2022-12-07T19:31:54;5.90;99.90
61207;DHT22;47070;49.212;8.084;2022-12-07T19:35:55;5.80;99.90
61207;DHT22;47070;49.212;8.084;2022-12-07T19:39:55;5.70;99.90
61207;DHT22;47070;49.212;8.084;2022-12-07T19:43:56;5.60;99.90
61207;DHT22;47070;49.212;8.084;2022-12-07T19:47:56;6.00;99.90
61207;DHT22;47070;49.212;8.084;2022-12-07T19:51:58;6.20;99.90
61207;DHT22;47070;49.212;8.084;2022-12-07T19:55:59;6.30;99.90
61207;DHT22;47070;49.212;8.084;2022-12-07T19:59:59;6.40;99.90
61207;DHT22;47070;49.212;8.084;2022-12-07T20:03:59;6.50;99.90
61207;DHT22;47070;49.212;8.084;2022-12-07T20:08:00;6.40;99.90
61207;DHT22;47070;49.212;8.084;2022-12-07T20:12:00;6.60;99.90
61207;DHT22;47070;49.212;8.084;2022-12-07T20:16:20;6.60;99.90
61207;DHT22;47070;49.212;8.084;2022-12-07T20:20:20;6.40;99.90
61207;DHT22;47070;49.212;8.084;2022-12-07T20:24:21;6.70;99.90
61207;DHT22;47070;49.212;8.084;2022-12-07T20:28:22;6.50;99.90
61207;DHT22;47070;49.212;8.084;2022-12-07T20:32:23;6.30;99.90
61207;DHT22;47070;49.212;8.084;2022-12-07T20:36:24;6.10;99.90
61207;DHT22;47070;49.212;8.084;2022-12-07T20:40:24;6.20;99.90
61207;DHT22;47070;49.212;8.084;2022-12-07T20:44:25;6.60;99.90
61207;DHT22;47070;49.212;8.084;2022-12-07T20:48:26;6.60;99.90
61207;DHT22;47070;49.212;8.084;2022-12-07T20:52:26;6.50;99.90
61207;DHT22;47070;49.212;8.084;2022-12-07T20:56:27;6.40;99.90
61207;DHT22;47070;49.212;8.084;2022-12-07T21:00:29;6.40;99.90
61207;DHT22;47070;49.212;8.084;2022-12-07T21:04:29;6.90;99.90
61207;DHT22;47070;49.212;8.084;2022-12-07T21:08:30;6.80;99.90
61207;DHT22;47070;49.212;8.084;2022-12-07T21:12:30;6.90;99.90
61207;DHT22;47070;49.212;8.084;2022-12-07T21:16:30;7.20;99.90
61207;DHT22;47070;49.212;8.084;2022-12-07T21:20:31;7.20;99.90
61207;DHT22;47070;49.212;8.084;2022-12-07T21:24:32;8.00;99.90
61207;DHT22;47070;49.212;8.084;2022-12-07T21:28:32;7.60;99.90
61207;DHT22;47070;49.212;8.084;2022-12-07T21:32:33;8.20;99.90
61207;DHT22;47070;49.212;8.084;2022-12-07T21:36:33;7.50;99.90
61207;DHT22;47070;49.212;8.084;2022-12-07T21:40:34;9.60;99.90
61207;DHT22;47070;49.212;8.084;2022-12-07T21:44:34;8.70;99.90
61207;DHT22;47070;49.212;8.084;2022-12-07T21:48:35;8.50;99.90
61207;DHT22;47070;49.212;8.084;2022-12-07T21:52:35;8.60;99.90
61207;DHT22;47070;49.212;8.084;2022-12-07T21:56:40;7.90;99.90
61207;DHT22;47070;49.212;8.084;2022-12-07T22:00:41;8.20;99.90
61207;DHT22;47070;49.212;8.084;2022-12-07T22:04:41;8.70;99.90
61207;DHT22;47070;49.212;8.084;2022-12-07T22:08:42;7.90;99.90
61207;DHT22;47070;49.212;8.084;2022-12-07T22:12:43;7.30;99.90
61207;DHT22;47070;49.212;8.084;2022-12-07T22:16:43;7.20;99.90
61207;DHT22;47070;49.212;8.084;2022-12-07T22:20:44;7.00;99.90
61207;DHT22;47070;49.212;8.084;2022-12-07T22:24:44;6.60;99.90
61207;DHT22;47070;49.212;8.084;2022-12-07T22:28:45;6.40;99.90
61207;DHT22;47070;49.212;8.084;2022-12-07T22:32:46;6.30;99.90
61207;DHT22;47070;49.212;8.084;2022-12-07T22:36:47;6.40;99.90
61207;DHT22;47070;49.212;8.084;2022-12-07T22:40:47;6.20;99.90
61207;DHT22;47070;49.212;8.084;2022-12-07T22:44:47;6.50;99.90
61207;DHT22;47070;49.212;8.084;2022-12-07T22:48:48;6.50;99.90
61207;DHT22;47070;49.212;8.084;2022-12-07T22:52:49;6.70;99.90
61207;DHT22;47070;49.212;8.084;2022-12-07T22:56:49;6.70;99.90
61207;DHT22;47070;49.212;8.084;2022-12-07T23:00:50;6.80;99.90
61207;DHT22;47070;49.212;8.084;2022-12-07T23:04:50;7.10;99.90
61207;DHT22;47070;49.212;8.084;2022-12-07T23:08:50;7.00;99.90
61207;DHT22;47070;49.212;8.084;2022-12-07T23:12:51;7.00;99.90
61207;DHT22;47070;49.212;8.084;2022-12-07T23:17:10;6.90;99.90
61207;DHT22;47070;49.212;8.084;2022-12-07T23:21:11;6.80;99.90
61207;DHT22;47070;49.212;8.084;2022-12-07T23:25:11;6.80;99.90
61207;DHT22;47070;49.212;8.084;2022-12-07T23:29:12;7.00;99.90
61207;DHT22;47070;49.212;8.084;2022-12-07T23:33:12;6.90;99.90
61207;DHT22;47070;49.212;8.084;2022-12-07T23:37:13;7.30;99.90
61207;DHT22;47070;49.212;8.084;2022-12-07T23:41:14;7.40;99.90
61207;DHT22;47070;49.212;8.084;2022-12-07T23:45:15;8.70;99.90
61207;DHT22;47070;49.212;8.084;2022-12-07T23:49:16;8.40;99.90
61207;DHT22;47070;49.212;8.084;2022-12-07T23:53:18;8.60;99.90
61207;DHT22;47070;49.212;8.084;2022-12-07T23:57:18;7.90;99.90
